createdAt,value
2022-11-27T00:00:01.379Z,101665.22
2022-11-27T00:02:30.814Z,101651.25
2022-11-27T00:05:00.276Z,101654.72
2022-11-27T00:07:29.689Z,101647.69
2022-11-27T00:10:01.927Z,101641.59
2022-11-27T00:12:31.304Z,101636.34
2022-11-27T00:15:00.646Z,101633.72
2022-11-27T00:17:30.076Z,101638.06
2022-11-27T00:19:59.422Z,101633.75
2022-11-27T00:22:28.818Z,101626.75
2022-11-27T00:25:00.825Z,101626.78
2022-11-27T00:27:30.204Z,101622.38
2022-11-27T00:29:59.567Z,101618.88
2022-11-27T00:32:28.925Z,101614.53
2022-11-27T00:34:58.279Z,101609.38
2022-11-27T00:37:27.681Z,101601.50
2022-11-27T00:39:56.978Z,101602.38
2022-11-27T00:42:28.942Z,101604.06
2022-11-27T00:44:58.298Z,101598.84
2022-11-27T00:47:27.657Z,101598.00
2022-11-27T00:49:57.247Z,101594.59
2022-11-27T00:52:26.605Z,101605.13
2022-11-27T00:54:55.943Z,101599.81
2022-11-27T00:57:25.902Z,101610.28
2022-11-27T00:59:57.877Z,101614.72
2022-11-27T01:02:27.255Z,101616.50
2022-11-27T01:04:56.633Z,101625.22
2022-11-27T01:07:26.047Z,101620.00
2022-11-27T01:09:55.445Z,101630.53
2022-11-27T01:12:24.828Z,101624.38
2022-11-27T01:14:54.159Z,101639.25
2022-11-27T01:17:26.037Z,101620.00
2022-11-27T01:19:55.476Z,101631.34
2022-11-27T01:22:24.760Z,101629.66
2022-11-27T01:24:54.070Z,101631.38
2022-11-27T01:27:23.384Z,101625.28
2022-11-27T01:29:52.691Z,101616.63
2022-11-27T01:32:22.019Z,101614.84
2022-11-27T01:34:54.550Z,101602.59
2022-11-27T01:37:24.026Z,101606.09
2022-11-27T01:39:53.336Z,101606.09
2022-11-27T01:42:22.691Z,101604.34
2022-11-27T01:44:53.546Z,101613.03
2022-11-27T01:47:40.153Z,101601.81
2022-11-27T01:50:16.714Z,101586.97
2022-11-27T01:52:47.630Z,101583.47
2022-11-27T01:55:20.455Z,101590.44
2022-11-27T01:57:50.683Z,101585.22
2022-11-27T02:00:20.408Z,101576.47
2022-11-27T02:02:49.904Z,101573.91
2022-11-27T02:05:22.722Z,101559.06
2022-11-27T02:07:52.636Z,101559.06
2022-11-27T02:10:22.461Z,101560.00
2022-11-27T02:12:55.859Z,101559.09
2022-11-27T02:15:27.915Z,101562.59
2022-11-27T02:17:59.263Z,101558.25
2022-11-27T02:20:36.279Z,101556.50
2022-11-27T02:23:12.797Z,101556.47
2022-11-27T02:25:45.105Z,101548.63
2022-11-27T02:28:20.182Z,101539.91
2022-11-27T02:30:53.461Z,101536.41
2022-11-27T02:33:23.740Z,101534.69
2022-11-27T02:35:53.567Z,101537.25
2022-11-27T02:38:24.124Z,101546.88
2022-11-27T02:40:54.058Z,101541.66
2022-11-27T02:43:23.852Z,101534.66
2022-11-27T02:45:55.806Z,101529.47
2022-11-27T02:48:26.255Z,101519.84
2022-11-27T02:50:55.727Z,101520.69
2022-11-27T02:53:25.825Z,101514.59
2022-11-27T02:55:55.202Z,101506.75
2022-11-27T02:58:25.069Z,101505.03
2022-11-27T03:00:57.172Z,101503.25
2022-11-27T03:03:27.471Z,101498.06
2022-11-27T03:05:57.320Z,101495.44
2022-11-27T03:08:28.664Z,101493.69
2022-11-27T03:11:00.411Z,101494.66
2022-11-27T03:13:30.439Z,101493.75
2022-11-27T03:16:06.632Z,101486.81
2022-11-27T03:18:38.335Z,101478.97
2022-11-27T03:21:08.267Z,101465.00
2022-11-27T03:23:37.635Z,101462.34
2022-11-27T03:26:07.050Z,101451.09
2022-11-27T03:28:36.432Z,101447.56
2022-11-27T03:31:08.392Z,101461.56
2022-11-27T03:33:37.889Z,101455.47
2022-11-27T03:36:12.864Z,101477.25
2022-11-27T03:38:42.331Z,101465.03
2022-11-27T03:41:12.731Z,101459.78
2022-11-27T03:43:43.979Z,101464.13
2022-11-27T03:46:17.793Z,101464.16
2022-11-27T03:48:49.321Z,101469.38
2022-11-27T03:51:20.207Z,101475.44
2022-11-27T03:53:52.161Z,101476.25
2022-11-27T03:56:25.517Z,101478.00
2022-11-27T03:58:55.264Z,101477.91
2022-11-27T04:01:27.583Z,101477.88
2022-11-27T04:03:57.024Z,101463.03
2022-11-27T04:06:26.453Z,101458.69
2022-11-27T04:08:55.833Z,101441.22
2022-11-27T04:11:25.155Z,101440.31
2022-11-27T04:13:54.544Z,101439.41
2022-11-27T04:16:23.917Z,101431.53
2022-11-27T04:18:55.961Z,101428.91
2022-11-27T04:21:25.331Z,101422.75
2022-11-27T04:23:54.687Z,101428.88
2022-11-27T04:26:24.701Z,101422.75
2022-11-27T04:28:54.132Z,101421.00
2022-11-27T04:31:23.619Z,101400.88
2022-11-27T04:33:53.097Z,101413.94
2022-11-27T04:36:25.066Z,101387.72
2022-11-27T04:38:54.709Z,101383.28
2022-11-27T04:41:24.043Z,101372.06
2022-11-27T04:43:53.409Z,101375.50
2022-11-27T04:46:23.187Z,101386.00
2022-11-27T04:48:52.609Z,101403.38
2022-11-27T04:51:21.934Z,101384.16
2022-11-27T04:53:53.932Z,101372.75
2022-11-27T04:56:23.307Z,101376.19
2022-11-27T04:58:52.687Z,101367.44
2022-11-27T05:01:22.202Z,101374.44
2022-11-27T05:03:51.618Z,101363.06
2022-11-27T05:06:22.674Z,101364.78
2022-11-27T05:08:59.705Z,101356.88
2022-11-27T05:11:29.178Z,101357.72
2022-11-27T05:14:10.746Z,101363.81
2022-11-27T05:16:40.160Z,101361.16
2022-11-27T05:19:09.529Z,101357.63
2022-11-27T05:21:38.906Z,101366.44
2022-11-27T05:24:11.178Z,101350.66
2022-11-27T05:26:40.833Z,101337.50
2022-11-27T05:29:10.337Z,101337.41
2022-11-27T05:31:39.860Z,101327.84
2022-11-27T05:34:09.436Z,101324.38
2022-11-27T05:36:39.081Z,101319.16
2022-11-27T05:39:11.501Z,101334.00
2022-11-27T05:41:41.371Z,101320.84
2022-11-27T05:44:12.368Z,101323.38
2022-11-27T05:46:43.643Z,101326.13
2022-11-27T05:49:13.953Z,101326.97
2022-11-27T05:51:50.410Z,101334.81
2022-11-27T05:54:23.141Z,101327.72
2022-11-27T05:56:52.643Z,101325.97
2022-11-27T05:59:22.127Z,101317.41
2022-11-27T06:01:52.162Z,101319.06
2022-11-27T06:04:21.786Z,101319.97
2022-11-27T06:06:51.120Z,101307.72
2022-11-27T06:09:23.088Z,101303.47
2022-11-27T06:11:52.483Z,101299.94
2022-11-27T06:14:22.114Z,101299.94
2022-11-27T06:16:51.569Z,101300.78
2022-11-27T06:19:20.941Z,101296.38
2022-11-27T06:21:50.351Z,101300.78
2022-11-27T06:24:19.658Z,101290.25
2022-11-27T06:26:51.841Z,101292.81
2022-11-27T06:29:21.283Z,101296.25
2022-11-27T06:31:50.746Z,101285.81
2022-11-27T06:34:20.193Z,101291.00
2022-11-27T06:36:50.705Z,101284.91
2022-11-27T06:39:20.602Z,101289.28
2022-11-27T06:41:53.663Z,101287.56
2022-11-27T06:44:23.206Z,101271.84
2022-11-27T06:46:52.531Z,101278.75
2022-11-27T06:49:22.285Z,101269.16
2022-11-27T06:51:51.622Z,101270.06
2022-11-27T06:54:20.963Z,101272.63
2022-11-27T06:56:53.259Z,101263.84
2022-11-27T06:59:22.703Z,101261.25
2022-11-27T07:01:52.062Z,101268.25
2022-11-27T07:04:21.451Z,101252.53
2022-11-27T07:06:50.812Z,101250.72
2022-11-27T07:09:20.128Z,101257.72
2022-11-27T07:11:49.467Z,101261.94
2022-11-27T07:14:21.405Z,101261.94
2022-11-27T07:16:50.927Z,101256.75
2022-11-27T07:19:20.476Z,101247.94
2022-11-27T07:21:49.868Z,101240.94
2022-11-27T07:24:20.403Z,101253.19
2022-11-27T07:26:49.795Z,101247.97
2022-11-27T07:29:21.715Z,101239.09
2022-11-27T07:31:51.501Z,101233.84
2022-11-27T07:34:21.918Z,101238.16
2022-11-27T07:36:51.486Z,101223.38
2022-11-27T07:39:39.383Z,101231.19
2022-11-27T07:42:37.011Z,101218.16
2022-11-27T07:45:02.297Z,101220.69
2022-11-27T07:47:32.175Z,101214.63
2022-11-27T07:50:01.479Z,101229.34
2022-11-27T07:52:30.851Z,101214.47
2022-11-27T07:55:00.253Z,101211.00
2022-11-27T07:57:29.814Z,101210.03
2022-11-27T08:00:01.830Z,101207.31
2022-11-27T08:02:33.859Z,101188.88
2022-11-27T08:05:08.112Z,101188.00
2022-11-27T08:07:40.824Z,101182.69
2022-11-27T08:10:10.929Z,101183.47
2022-11-27T08:12:40.261Z,101188.66
2022-11-27T08:15:13.142Z,101195.56
2022-11-27T08:17:42.713Z,101188.47
2022-11-27T08:20:15.746Z,101185.72
2022-11-27T08:22:45.295Z,101168.09
2022-11-27T08:25:14.611Z,101172.34
2022-11-27T08:27:44.096Z,101161.00
2022-11-27T08:30:16.580Z,101165.31
2022-11-27T08:32:46.581Z,101167.81
2022-11-27T08:35:15.922Z,101167.72
2022-11-27T08:37:45.418Z,101156.28
2022-11-27T08:40:14.951Z,101153.47
2022-11-27T08:42:45.542Z,101163.81
2022-11-27T08:45:17.778Z,101153.09
2022-11-27T08:47:47.188Z,101155.56
2022-11-27T08:50:16.544Z,101165.94
2022-11-27T08:52:45.980Z,101158.06
2022-11-27T08:55:15.292Z,101158.69
2022-11-27T09:00:56.331Z,101158.56
2022-11-27T09:03:25.755Z,101164.63
2022-11-27T09:05:55.130Z,101161.31
2022-11-27T09:08:24.511Z,101167.34
2022-11-27T09:10:53.847Z,101156.75
2022-11-27T09:13:23.732Z,101157.56
2022-11-27T09:15:53.250Z,101142.53
2022-11-27T09:18:25.176Z,101143.38
2022-11-27T09:20:58.265Z,101151.19
2022-11-27T09:23:27.644Z,101154.69
2022-11-27T09:25:56.990Z,101148.59
2022-11-27T09:28:31.104Z,101146.03
2022-11-27T09:31:01.443Z,101143.38
2022-11-27T09:33:34.988Z,101141.63
2022-11-27T09:36:06.430Z,101134.53
2022-11-27T09:38:35.885Z,101133.59
2022-11-27T09:41:06.158Z,101143.16
2022-11-27T09:43:37.915Z,101134.38
2022-11-27T09:46:09.855Z,101123.88
2022-11-27T09:48:42.979Z,101143.88
2022-11-27T09:51:14.362Z,101121.09
2022-11-27T09:53:46.613Z,101135.03
2022-11-27T09:56:17.229Z,101128.72
2022-11-27T09:58:47.222Z,101117.25
2022-11-27T10:01:17.152Z,101114.59
2022-11-27T10:03:49.412Z,101120.66
2022-11-27T10:06:24.324Z,101116.09
2022-11-27T10:08:55.567Z,101117.75
2022-11-27T10:11:26.148Z,101114.97
2022-11-27T10:14:11.523Z,101123.81
2022-11-27T10:16:44.500Z,101126.31
2022-11-27T10:19:19.983Z,101127.13
2022-11-27T10:21:49.886Z,101123.41
2022-11-27T10:24:21.600Z,101129.75
2022-11-27T10:26:51.462Z,101121.59
2022-11-27T10:29:27.107Z,101120.63
2022-11-27T10:31:57.875Z,101110.88
2022-11-27T10:34:31.717Z,101118.88
2022-11-27T10:37:01.111Z,101104.53
2022-11-27T10:39:33.520Z,101102.75
2022-11-27T10:42:07.412Z,101106.38
2022-11-27T10:44:37.406Z,101114.19
2022-11-27T10:47:07.600Z,101107.72
2022-11-27T10:49:41.133Z,101104.34
2022-11-27T10:52:12.955Z,101102.34
2022-11-27T10:54:42.841Z,101097.94
2022-11-27T10:57:18.703Z,101100.47
2022-11-27T10:59:49.396Z,101090.94
2022-11-27T11:02:31.870Z,101089.25
2022-11-27T11:05:32.850Z,101087.41
2022-11-27T11:08:05.069Z,101078.78
2022-11-27T11:10:36.075Z,101084.78
2022-11-27T11:13:21.528Z,101078.78
2022-11-27T11:15:54.863Z,101076.13
2022-11-27T11:18:25.082Z,101069.16
2022-11-27T11:20:57.886Z,101060.41
2022-11-27T11:23:34.440Z,101071.56
2022-11-27T11:26:08.462Z,101069.78
2022-11-27T11:28:39.715Z,101055.72
2022-11-27T11:31:10.819Z,101053.16
2022-11-27T11:33:41.744Z,101041.72
2022-11-27T11:36:14.127Z,101038.97
2022-11-27T11:38:45.396Z,101018.78
2022-11-27T11:41:18.057Z,101017.28
2022-11-27T11:43:56.409Z,101020.03
2022-11-27T11:46:28.503Z,101013.09
2022-11-27T11:49:03.007Z,101013.03
2022-11-27T11:51:50.315Z,101003.28
2022-11-27T11:54:25.245Z,100997.22
2022-11-27T11:56:54.594Z,100997.34
2022-11-27T11:59:25.426Z,100996.53
2022-11-27T12:01:58.312Z,100979.06
2022-11-27T12:04:34.374Z,100984.66
2022-11-27T12:07:05.469Z,100976.69
2022-11-27T12:09:41.858Z,100959.84
2022-11-27T12:12:15.143Z,100960.44
2022-11-27T12:14:45.813Z,100932.72
2022-11-27T12:17:19.219Z,100925.84
2022-11-27T12:20:06.244Z,100901.44
2022-11-27T12:22:40.628Z,100884.19
2022-11-27T12:25:19.581Z,100861.53
2022-11-27T12:27:51.572Z,100867.97
2022-11-27T12:30:21.456Z,100862.72
2022-11-27T12:33:06.278Z,100886.97
2022-11-27T12:35:36.520Z,100885.19
2022-11-27T12:38:20.657Z,100870.56
2022-11-27T12:40:57.459Z,100866.19
2022-11-27T12:43:27.433Z,100866.88
2022-11-27T12:45:57.533Z,100872.06
2022-11-27T12:48:27.903Z,100864.88
2022-11-27T12:50:57.912Z,100856.66
2022-11-27T12:53:28.612Z,100852.25
2022-11-27T12:56:02.556Z,100833.69
2022-11-27T12:58:33.086Z,100841.53
2022-11-27T13:01:04.634Z,100842.28
2022-11-27T13:03:36.753Z,100834.22
2022-11-27T13:06:07.230Z,100842.91
2022-11-27T13:08:38.595Z,100843.50
2022-11-27T13:11:11.293Z,100848.97
2022-11-27T13:13:42.030Z,100845.34
2022-11-27T13:16:12.955Z,100847.44
2022-11-27T13:18:42.850Z,100850.06
2022-11-27T13:21:14.021Z,100842.91
2022-11-27T13:23:43.445Z,100835.81
2022-11-27T13:26:20.752Z,100826.88
2022-11-27T13:28:54.472Z,100821.66
2022-11-27T13:31:24.195Z,100817.16
2022-11-27T13:33:53.818Z,100822.28
2022-11-27T13:36:24.067Z,100806.47
2022-11-27T13:38:58.346Z,100806.38
2022-11-27T13:41:32.717Z,100815.28
2022-11-27T13:44:02.140Z,100817.94
2022-11-27T13:46:31.796Z,100808.25
2022-11-27T13:49:03.129Z,100804.75
2022-11-27T13:51:33.510Z,100807.41
2022-11-27T13:54:13.132Z,100796.75
2022-11-27T13:56:45.203Z,100798.22
2022-11-27T13:59:18.344Z,100796.28
2022-11-27T14:02:01.044Z,100797.22
2022-11-27T14:04:31.283Z,100805.13
2022-11-27T14:07:01.364Z,100802.63
2022-11-27T14:09:38.057Z,100803.47
2022-11-27T14:12:19.731Z,100801.63
2022-11-27T14:14:59.848Z,100804.31
2022-11-27T14:17:29.920Z,100811.31
2022-11-27T14:20:02.730Z,100813.63
2022-11-27T14:22:53.982Z,100811.03
2022-11-27T14:25:26.685Z,100804.13
2022-11-27T14:28:06.345Z,100808.47
2022-11-27T14:30:36.655Z,100813.03
2022-11-27T14:33:06.488Z,100808.00
2022-11-27T14:35:35.817Z,100788.69
2022-11-27T14:38:12.055Z,100767.69
2022-11-27T14:40:41.457Z,100755.50
2022-11-27T14:43:17.359Z,100754.78
2022-11-27T14:45:47.677Z,100757.44
2022-11-27T14:48:22.327Z,100783.75
2022-11-27T14:50:51.950Z,100797.88
2022-11-27T14:53:21.419Z,100795.28
2022-11-27T14:55:51.279Z,100773.59
2022-11-27T14:58:24.796Z,100771.03
2022-11-27T15:00:54.959Z,100786.19
2022-11-27T15:03:24.496Z,100786.88
2022-11-27T15:05:54.347Z,100795.38
2022-11-27T15:08:23.807Z,100794.69
2022-11-27T15:10:55.749Z,100786.75
2022-11-27T15:13:28.945Z,100787.72
2022-11-27T15:15:59.939Z,100784.63
2022-11-27T15:18:29.438Z,100782.19
2022-11-27T15:20:58.764Z,100773.69
2022-11-27T15:23:29.252Z,100764.19
2022-11-27T15:26:16.043Z,100752.63
2022-11-27T15:28:52.949Z,100743.66
2022-11-27T15:31:26.710Z,100740.97
2022-11-27T15:34:00.073Z,100740.88
2022-11-27T15:36:29.830Z,100728.53
2022-11-27T15:39:06.705Z,100724.34
2022-11-27T15:41:40.813Z,100728.53
2022-11-27T15:44:15.414Z,100732.94
2022-11-27T15:46:44.839Z,100733.53
2022-11-27T15:49:14.466Z,100728.47
2022-11-27T15:51:43.852Z,100732.63
2022-11-27T15:54:13.231Z,100734.28
2022-11-27T15:56:42.644Z,100726.56
2022-11-27T15:59:12.704Z,100721.44
2022-11-27T16:01:44.734Z,100723.00
2022-11-27T16:04:14.171Z,100711.53
2022-11-27T16:06:43.514Z,100723.22
2022-11-27T16:09:12.888Z,100716.25
2022-11-27T16:11:42.769Z,100703.81
2022-11-27T16:14:12.087Z,100686.34
2022-11-27T16:16:44.069Z,100682.50
2022-11-27T16:19:14.871Z,100674.81
2022-11-27T16:21:44.321Z,100671.66
2022-11-27T16:24:14.433Z,100667.41
2022-11-27T16:26:43.913Z,100658.72
2022-11-27T16:29:13.303Z,100666.66
2022-11-27T16:31:45.302Z,100659.78
2022-11-27T16:34:16.771Z,100668.44
2022-11-27T16:36:46.825Z,100669.28
2022-11-27T16:39:19.085Z,100663.44
2022-11-27T16:41:48.578Z,100657.19
2022-11-27T16:44:18.145Z,100652.00
2022-11-27T16:46:50.404Z,100653.56
2022-11-27T16:49:20.835Z,100656.19
2022-11-27T16:51:52.439Z,100653.13
2022-11-27T16:54:21.781Z,100654.16
2022-11-27T16:56:51.745Z,100649.69
2022-11-27T16:59:21.327Z,100639.06
2022-11-27T17:01:54.119Z,100626.94
2022-11-27T17:04:23.728Z,100619.00
2022-11-27T17:09:38.778Z,100612.28
2022-11-27T17:12:08.510Z,100623.72
2022-11-27T17:14:38.863Z,100610.56
2022-11-27T17:17:11.038Z,100606.06
2022-11-27T17:19:41.260Z,100598.97
2022-11-27T17:22:11.160Z,100605.25
2022-11-27T17:27:24.106Z,100570.88
2022-11-27T17:29:53.484Z,100583.41
2022-11-27T17:32:25.460Z,100587.78
2022-11-27T17:34:56.408Z,100580.69
2022-11-27T17:37:25.756Z,100562.34
2022-11-27T17:39:55.368Z,100568.41
2022-11-27T17:42:24.778Z,100560.56
2022-11-27T17:44:54.095Z,100543.88
2022-11-27T17:47:26.505Z,100540.34
2022-11-27T17:49:56.665Z,100528.91
2022-11-27T17:52:26.006Z,100542.81
2022-11-27T17:54:55.428Z,100540.13
2022-11-27T17:57:24.777Z,100539.91
2022-11-27T17:59:55.655Z,100533.16
2022-11-27T18:02:27.811Z,100536.38
2022-11-27T18:04:57.402Z,100527.66
2022-11-27T18:07:27.137Z,100512.72
2022-11-27T18:09:57.183Z,100511.84
2022-11-27T18:12:27.709Z,100512.47
2022-11-27T18:15:00.985Z,100528.50
2022-11-27T18:17:33.914Z,100526.50
2022-11-27T18:20:03.883Z,100524.81
2022-11-27T18:22:33.222Z,100532.66
2022-11-27T18:25:02.532Z,100532.25
2022-11-27T18:27:32.719Z,100534.09
2022-11-27T18:30:02.055Z,100497.50
2022-11-27T18:32:34.058Z,100494.75
2022-11-27T18:35:03.514Z,100486.78
2022-11-27T18:37:32.830Z,100465.03
2022-11-27T18:40:02.307Z,100457.84
2022-11-27T18:42:33.071Z,100450.00
2022-11-27T18:45:03.948Z,100448.91
2022-11-27T18:47:36.100Z,100446.34
2022-11-27T18:50:06.281Z,100445.44
2022-11-27T18:52:35.671Z,100435.63
2022-11-27T18:55:06.138Z,100438.25
2022-11-27T18:57:35.493Z,100438.25
2022-11-27T19:00:05.096Z,100436.47
2022-11-27T19:02:37.327Z,100422.28
2022-11-27T19:05:07.441Z,100433.00
2022-11-27T19:07:37.043Z,100440.88
2022-11-27T19:10:06.831Z,100442.66
2022-11-27T19:12:36.202Z,100438.41
2022-11-27T19:15:07.394Z,100457.84
2022-11-27T19:17:39.371Z,100478.88
2022-11-27T19:20:10.585Z,100473.00
2022-11-27T19:22:40.348Z,100472.84
2022-11-27T19:25:10.114Z,100464.81
2022-11-27T19:30:23.308Z,100434.28
2022-11-27T19:32:55.369Z,100431.44
2022-11-27T19:35:26.666Z,100436.34
2022-11-27T19:37:57.158Z,100444.81
2022-11-27T19:40:26.650Z,100440.66
2022-11-27T19:43:00.901Z,100435.44
2022-11-27T19:45:30.803Z,100441.00
2022-11-27T19:48:03.651Z,100438.28
2022-11-27T19:50:33.107Z,100433.88
2022-11-27T19:53:05.287Z,100423.38
2022-11-27T19:55:34.916Z,100413.84
2022-11-27T19:58:04.568Z,100420.59
2022-11-27T20:00:34.064Z,100411.50
2022-11-27T20:03:06.342Z,100405.28
2022-11-27T20:05:35.701Z,100426.09
2022-11-27T20:08:05.523Z,100411.22
2022-11-27T20:10:35.244Z,100414.78
2022-11-27T20:13:05.027Z,100404.53
2022-11-27T20:15:34.739Z,100396.03
2022-11-27T20:18:06.744Z,100399.50
2022-11-27T20:20:36.215Z,100402.94
2022-11-27T20:23:05.645Z,100387.88
2022-11-27T20:25:35.048Z,100388.00
2022-11-27T20:28:04.463Z,100369.47
2022-11-27T20:30:34.430Z,100397.34
2022-11-27T20:33:07.886Z,100384.78
2022-11-27T20:35:37.795Z,100377.81
2022-11-27T20:38:10.730Z,100360.31
2022-11-27T20:40:41.084Z,100365.47
2022-11-27T20:43:11.405Z,100356.63
2022-11-27T20:45:41.425Z,100371.66
2022-11-27T20:48:13.566Z,100358.63
2022-11-27T20:50:49.804Z,100365.63
2022-11-27T20:53:20.415Z,100350.72
2022-11-27T20:55:49.749Z,100361.25
2022-11-27T20:58:19.559Z,100348.09
2022-11-27T21:00:49.098Z,100348.94
2022-11-27T21:03:21.065Z,100342.97
2022-11-27T21:05:50.627Z,100336.81
2022-11-27T21:08:19.995Z,100343.69
2022-11-27T21:10:50.505Z,100344.47
2022-11-27T21:13:19.940Z,100340.22
2022-11-27T21:15:51.732Z,100334.03
2022-11-27T21:18:23.720Z,100348.94
2022-11-27T21:20:54.016Z,100343.53
2022-11-27T21:23:23.863Z,100342.50
2022-11-27T21:25:53.620Z,100332.19
2022-11-27T21:28:23.124Z,100330.91
2022-11-27T21:30:54.388Z,100324.72
2022-11-27T21:33:26.397Z,100334.16
2022-11-27T21:35:57.403Z,100325.94
2022-11-27T21:38:27.156Z,100320.81
2022-11-27T21:40:56.723Z,100334.06
2022-11-27T21:43:26.088Z,100311.31
2022-11-27T21:45:55.560Z,100296.63
2022-11-27T21:48:27.710Z,100292.38
2022-11-27T21:51:02.729Z,100284.63
2022-11-27T21:53:32.780Z,100279.09
2022-11-27T21:56:05.816Z,100277.38
2022-11-27T21:58:36.498Z,100276.25
2022-11-27T22:01:06.795Z,100267.50
2022-11-27T22:03:42.525Z,100257.03
2022-11-27T22:06:13.029Z,100255.50
2022-11-27T22:08:42.545Z,100253.59
2022-11-27T22:11:12.463Z,100260.75
2022-11-27T22:13:41.924Z,100264.75
2022-11-27T22:16:11.678Z,100264.06
2022-11-27T22:18:43.704Z,100276.59
2022-11-27T22:21:13.456Z,100278.16
2022-11-27T22:23:44.164Z,100284.75
2022-11-27T22:26:14.335Z,100278.94
2022-11-27T22:28:43.722Z,100273.75
2022-11-27T22:31:13.851Z,100279.00
2022-11-27T22:33:46.277Z,100282.56
2022-11-27T22:36:16.860Z,100276.44
2022-11-27T22:38:46.734Z,100273.09
2022-11-27T22:41:16.669Z,100270.63
2022-11-27T22:43:46.046Z,100282.16
2022-11-27T22:46:16.794Z,100280.53
2022-11-27T22:48:50.986Z,100274.44
2022-11-27T22:51:20.481Z,100279.03
2022-11-27T22:53:49.935Z,100267.81
2022-11-27T22:56:19.562Z,100275.63
2022-11-27T22:58:58.248Z,100267.03
2022-11-27T23:01:36.322Z,100262.06
2022-11-27T23:04:08.431Z,100259.81
2022-11-27T23:06:38.290Z,100250.66
2022-11-27T23:09:07.736Z,100248.88
2022-11-27T23:11:37.449Z,100240.34
2022-11-27T23:14:06.849Z,100221.78
2022-11-27T23:16:36.435Z,100226.97
2022-11-27T23:19:08.529Z,100223.47
2022-11-27T23:21:39.005Z,100219.38
2022-11-27T23:24:09.070Z,100225.38
2022-11-27T23:26:38.653Z,100212.53
2022-11-27T23:29:08.049Z,100215.00
2022-11-27T23:31:37.778Z,100203.63
2022-11-27T23:34:10.518Z,100202.69
2022-11-27T23:36:39.985Z,100189.75
2022-11-27T23:39:09.887Z,100195.28
2022-11-27T23:41:39.753Z,100194.56
2022-11-27T23:44:09.689Z,100178.91
2022-11-27T23:46:39.076Z,100175.97
2022-11-27T23:49:10.986Z,100181.94
2022-11-27T23:51:40.367Z,100175.06
2022-11-27T23:54:10.211Z,100186.19
2022-11-27T23:56:39.986Z,100187.13
2022-11-27T23:59:09.381Z,100162.69
